sensor_id;sensor_type;location;lat;lon;timestamp;P1;durP1;ratioP1;P2;durP2;ratioP2
23573;SDS011;11965;53.640;10.050;2023-06-24T00:00:02;12.28;;;12.28;;
23573;SDS011;11965;53.640;10.050;2023-06-24T00:02:32;12.38;;;12.38;;
23573;SDS011;11965;53.640;10.050;2023-06-24T00:05:01;12.14;;;12.14;;
23573;SDS011;11965;53.640;10.050;2023-06-24T00:07:31;11.99;;;11.99;;
23573;SDS011;11965;53.640;10.050;2023-06-24T00:10:01;12.24;;;12.24;;
23573;SDS011;11965;53.640;10.050;2023-06-24T00:12:29;11.77;;;11.77;;
23573;SDS011;11965;53.640;10.050;2023-06-24T00:14:58;12.03;;;12.03;;
23573;SDS011;11965;53.640;10.050;2023-06-24T00:17:25;11.89;;;11.89;;
23573;SDS011;11965;53.640;10.050;2023-06-24T00:19:53;11.76;;;11.76;;
23573;SDS011;11965;53.640;10.050;2023-06-24T00:22:20;12.74;;;12.74;;
23573;SDS011;11965;53.640;10.050;2023-06-24T00:24:48;11.85;;;11.85;;
23573;SDS011;11965;53.640;10.050;2023-06-24T00:27:15;11.88;;;11.88;;
23573;SDS011;11965;53.640;10.050;2023-06-24T00:29:42;11.93;;;11.93;;
23573;SDS011;11965;53.640;10.050;2023-06-24T00:32:09;11.84;;;11.84;;
23573;SDS011;11965;53.640;10.050;2023-06-24T00:34:36;12.44;;;12.44;;
23573;SDS011;11965;53.640;10.050;2023-06-24T00:37:02;12.89;;;12.89;;
23573;SDS011;11965;53.640;10.050;2023-06-24T00:39:29;12.38;;;12.38;;
23573;SDS011;11965;53.640;10.050;2023-06-24T00:41:58;11.99;;;11.99;;
23573;SDS011;11965;53.640;10.050;2023-06-24T00:44:25;11.59;;;11.59;;
23573;SDS011;11965;53.640;10.050;2023-06-24T00:46:53;12.16;;;12.16;;
23573;SDS011;11965;53.640;10.050;2023-06-24T00:49:20;11.92;;;11.92;;
23573;SDS011;11965;53.640;10.050;2023-06-24T00:51:47;12.65;;;12.52;;
23573;SDS011;11965;53.640;10.050;2023-06-24T00:54:15;12.40;;;12.40;;
23573;SDS011;11965;53.640;10.050;2023-06-24T00:56:42;13.26;;;13.26;;
23573;SDS011;11965;53.640;10.050;2023-06-24T00:59:12;12.79;;;12.79;;
23573;SDS011;11965;53.640;10.050;2023-06-24T01:01:41;13.12;;;13.12;;
23573;SDS011;11965;53.640;10.050;2023-06-24T01:04:09;12.66;;;12.66;;
23573;SDS011;11965;53.640;10.050;2023-06-24T01:06:36;12.60;;;12.60;;
23573;SDS011;11965;53.640;10.050;2023-06-24T01:09:08;12.53;;;12.53;;
23573;SDS011;11965;53.640;10.050;2023-06-24T01:11:35;12.37;;;12.37;;
23573;SDS011;11965;53.640;10.050;2023-06-24T01:14:03;13.02;;;13.02;;
23573;SDS011;11965;53.640;10.050;2023-06-24T01:16:32;13.68;;;13.68;;
23573;SDS011;11965;53.640;10.050;2023-06-24T01:19:16;13.82;;;13.82;;
23573;SDS011;11965;53.640;10.050;2023-06-24T01:22:11;13.51;;;13.51;;
23573;SDS011;11965;53.640;10.050;2023-06-24T01:25:01;13.81;;;13.81;;
23573;SDS011;11965;53.640;10.050;2023-06-24T01:27:51;13.36;;;13.36;;
23573;SDS011;11965;53.640;10.050;2023-06-24T01:33:23;13.16;;;13.16;;
23573;SDS011;11965;53.640;10.050;2023-06-24T01:35:58;13.29;;;13.13;;
23573;SDS011;11965;53.640;10.050;2023-06-24T01:38:31;13.34;;;13.34;;
23573;SDS011;11965;53.640;10.050;2023-06-24T01:41:06;13.24;;;13.24;;
23573;SDS011;11965;53.640;10.050;2023-06-24T01:43:41;13.33;;;13.33;;
23573;SDS011;11965;53.640;10.050;2023-06-24T01:46:10;13.10;;;13.10;;
23573;SDS011;11965;53.640;10.050;2023-06-24T01:48:42;13.79;;;13.77;;
23573;SDS011;11965;53.640;10.050;2023-06-24T01:51:13;13.60;;;13.48;;
23573;SDS011;11965;53.640;10.050;2023-06-24T01:53:47;13.52;;;13.52;;
23573;SDS011;11965;53.640;10.050;2023-06-24T01:56:19;12.77;;;12.77;;
23573;SDS011;11965;53.640;10.050;2023-06-24T01:58:50;12.91;;;12.91;;
23573;SDS011;11965;53.640;10.050;2023-06-24T02:01:22;12.98;;;12.98;;
23573;SDS011;11965;53.640;10.050;2023-06-24T02:03:52;12.69;;;12.69;;
23573;SDS011;11965;53.640;10.050;2023-06-24T02:06:22;12.87;;;12.87;;
23573;SDS011;11965;53.640;10.050;2023-06-24T02:08:53;12.13;;;12.13;;
23573;SDS011;11965;53.640;10.050;2023-06-24T02:11:24;13.11;;;13.11;;
23573;SDS011;11965;53.640;10.050;2023-06-24T02:13:53;12.61;;;12.61;;
23573;SDS011;11965;53.640;10.050;2023-06-24T02:16:21;12.63;;;12.63;;
23573;SDS011;11965;53.640;10.050;2023-06-24T02:18:54;13.05;;;13.05;;
23573;SDS011;11965;53.640;10.050;2023-06-24T02:21:25;12.55;;;12.55;;
23573;SDS011;11965;53.640;10.050;2023-06-24T02:23:54;12.36;;;12.36;;
23573;SDS011;11965;53.640;10.050;2023-06-24T02:26:22;12.44;;;12.44;;
23573;SDS011;11965;53.640;10.050;2023-06-24T02:28:51;12.25;;;12.25;;
23573;SDS011;11965;53.640;10.050;2023-06-24T02:31:20;12.29;;;12.29;;
23573;SDS011;11965;53.640;10.050;2023-06-24T02:33:47;12.10;;;12.10;;
23573;SDS011;11965;53.640;10.050;2023-06-24T02:36:16;12.10;;;12.10;;
23573;SDS011;11965;53.640;10.050;2023-06-24T02:38:43;12.18;;;12.18;;
23573;SDS011;11965;53.640;10.050;2023-06-24T02:41:10;11.54;;;11.54;;
23573;SDS011;11965;53.640;10.050;2023-06-24T02:43:37;12.37;;;12.37;;
23573;SDS011;11965;53.640;10.050;2023-06-24T02:46:04;12.13;;;12.13;;
23573;SDS011;11965;53.640;10.050;2023-06-24T02:48:34;12.19;;;12.17;;
23573;SDS011;11965;53.640;10.050;2023-06-24T02:51:04;12.87;;;12.65;;
23573;SDS011;11965;53.640;10.050;2023-06-24T02:53:37;12.67;;;12.66;;
23573;SDS011;11965;53.640;10.050;2023-06-24T02:56:09;11.83;;;11.83;;
23573;SDS011;11965;53.640;10.050;2023-06-24T02:58:40;12.23;;;12.23;;
23573;SDS011;11965;53.640;10.050;2023-06-24T03:01:18;11.97;;;11.97;;
23573;SDS011;11965;53.640;10.050;2023-06-24T03:03:51;11.89;;;11.89;;
23573;SDS011;11965;53.640;10.050;2023-06-24T03:06:21;12.30;;;12.30;;
23573;SDS011;11965;53.640;10.050;2023-06-24T03:08:50;12.05;;;12.05;;
23573;SDS011;11965;53.640;10.050;2023-06-24T03:11:21;11.94;;;11.94;;
23573;SDS011;11965;53.640;10.050;2023-06-24T03:13:48;11.24;;;11.24;;
23573;SDS011;11965;53.640;10.050;2023-06-24T03:16:21;11.23;;;11.23;;
23573;SDS011;11965;53.640;10.050;2023-06-24T03:19:11;11.71;;;11.71;;
23573;SDS011;11965;53.640;10.050;2023-06-24T03:21:38;11.94;;;11.93;;
23573;SDS011;11965;53.640;10.050;2023-06-24T03:24:14;11.85;;;11.84;;
23573;SDS011;11965;53.640;10.050;2023-06-24T03:26:43;11.55;;;11.55;;
23573;SDS011;11965;53.640;10.050;2023-06-24T03:29:12;11.75;;;11.75;;
23573;SDS011;11965;53.640;10.050;2023-06-24T03:32:11;11.60;;;11.60;;
23573;SDS011;11965;53.640;10.050;2023-06-24T03:34:39;11.77;;;11.77;;
23573;SDS011;11965;53.640;10.050;2023-06-24T03:37:08;10.88;;;10.88;;
23573;SDS011;11965;53.640;10.050;2023-06-24T03:39:39;11.45;;;11.45;;
23573;SDS011;11965;53.640;10.050;2023-06-24T03:42:06;11.75;;;11.72;;
23573;SDS011;11965;53.640;10.050;2023-06-24T03:44:33;10.94;;;10.94;;
23573;SDS011;11965;53.640;10.050;2023-06-24T03:47:01;11.21;;;11.21;;
23573;SDS011;11965;53.640;10.050;2023-06-24T03:49:28;11.11;;;11.11;;
23573;SDS011;11965;53.640;10.050;2023-06-24T03:51:55;11.18;;;11.18;;
23573;SDS011;11965;53.640;10.050;2023-06-24T03:54:23;11.07;;;11.07;;
23573;SDS011;11965;53.640;10.050;2023-06-24T03:56:51;11.20;;;11.20;;
23573;SDS011;11965;53.640;10.050;2023-06-24T03:59:18;11.82;;;11.82;;
23573;SDS011;11965;53.640;10.050;2023-06-24T04:01:45;12.09;;;12.09;;
23573;SDS011;11965;53.640;10.050;2023-06-24T04:04:12;11.45;;;11.45;;
23573;SDS011;11965;53.640;10.050;2023-06-24T04:06:39;11.14;;;11.14;;
23573;SDS011;11965;53.640;10.050;2023-06-24T04:09:06;10.94;;;10.94;;
23573;SDS011;11965;53.640;10.050;2023-06-24T04:11:35;11.18;;;11.18;;
23573;SDS011;11965;53.640;10.050;2023-06-24T04:14:03;11.37;;;11.37;;
23573;SDS011;11965;53.640;10.050;2023-06-24T04:16:32;11.69;;;11.69;;
23573;SDS011;11965;53.640;10.050;2023-06-24T04:19:00;11.82;;;11.82;;
23573;SDS011;11965;53.640;10.050;2023-06-24T04:21:27;12.30;;;12.30;;
23573;SDS011;11965;53.640;10.050;2023-06-24T04:23:54;11.68;;;11.68;;
23573;SDS011;11965;53.640;10.050;2023-06-24T04:26:21;11.59;;;11.59;;
23573;SDS011;11965;53.640;10.050;2023-06-24T04:28:48;10.93;;;10.93;;
23573;SDS011;11965;53.640;10.050;2023-06-24T04:31:17;11.80;;;11.80;;
23573;SDS011;11965;53.640;10.050;2023-06-24T04:33:44;11.43;;;11.43;;
23573;SDS011;11965;53.640;10.050;2023-06-24T04:36:11;11.46;;;11.43;;
23573;SDS011;11965;53.640;10.050;2023-06-24T04:38:37;11.00;;;11.00;;
23573;SDS011;11965;53.640;10.050;2023-06-24T04:41:04;10.71;;;10.71;;
23573;SDS011;11965;53.640;10.050;2023-06-24T04:43:31;11.20;;;11.20;;
23573;SDS011;11965;53.640;10.050;2023-06-24T04:45:58;10.81;;;10.81;;
23573;SDS011;11965;53.640;10.050;2023-06-24T04:48:26;10.44;;;10.44;;
23573;SDS011;11965;53.640;10.050;2023-06-24T04:50:53;10.47;;;10.47;;
23573;SDS011;11965;53.640;10.050;2023-06-24T04:53:21;10.39;;;10.39;;
23573;SDS011;11965;53.640;10.050;2023-06-24T04:55:48;10.45;;;10.45;;
23573;SDS011;11965;53.640;10.050;2023-06-24T04:58:14;10.23;;;10.23;;
23573;SDS011;11965;53.640;10.050;2023-06-24T05:00:41;10.01;;;10.01;;
23573;SDS011;11965;53.640;10.050;2023-06-24T05:03:09;10.23;;;10.23;;
23573;SDS011;11965;53.640;10.050;2023-06-24T05:05:38;10.34;;;10.34;;
23573;SDS011;11965;53.640;10.050;2023-06-24T05:08:05;9.51;;;9.51;;
23573;SDS011;11965;53.640;10.050;2023-06-24T05:10:31;8.85;;;8.85;;
23573;SDS011;11965;53.640;10.050;2023-06-24T05:12:58;9.32;;;9.32;;
23573;SDS011;11965;53.640;10.050;2023-06-24T05:15:25;8.70;;;8.70;;
23573;SDS011;11965;53.640;10.050;2023-06-24T05:17:52;9.04;;;9.04;;
23573;SDS011;11965;53.640;10.050;2023-06-24T05:20:19;8.77;;;8.77;;
23573;SDS011;11965;53.640;10.050;2023-06-24T05:22:47;8.62;;;8.62;;
23573;SDS011;11965;53.640;10.050;2023-06-24T05:25:14;7.89;;;7.89;;
23573;SDS011;11965;53.640;10.050;2023-06-24T05:27:41;7.99;;;7.99;;
23573;SDS011;11965;53.640;10.050;2023-06-24T05:30:09;8.04;;;8.04;;
23573;SDS011;11965;53.640;10.050;2023-06-24T05:32:38;7.24;;;7.24;;
23573;SDS011;11965;53.640;10.050;2023-06-24T05:35:05;7.72;;;7.72;;
23573;SDS011;11965;53.640;10.050;2023-06-24T05:37:32;7.72;;;7.72;;
23573;SDS011;11965;53.640;10.050;2023-06-24T05:40:01;8.02;;;8.02;;
23573;SDS011;11965;53.640;10.050;2023-06-24T05:42:30;8.01;;;8.01;;
23573;SDS011;11965;53.640;10.050;2023-06-24T05:44:57;7.76;;;7.76;;
23573;SDS011;11965;53.640;10.050;2023-06-24T05:47:24;6.62;;;6.62;;
23573;SDS011;11965;53.640;10.050;2023-06-24T05:49:50;6.42;;;6.42;;
23573;SDS011;11965;53.640;10.050;2023-06-24T05:52:17;6.69;;;6.69;;
23573;SDS011;11965;53.640;10.050;2023-06-24T05:54:44;6.61;;;6.61;;
23573;SDS011;11965;53.640;10.050;2023-06-24T05:57:12;6.50;;;6.50;;
23573;SDS011;11965;53.640;10.050;2023-06-24T05:59:39;6.47;;;6.47;;
23573;SDS011;11965;53.640;10.050;2023-06-24T06:02:06;6.41;;;6.41;;
23573;SDS011;11965;53.640;10.050;2023-06-24T06:04:33;5.91;;;5.91;;
23573;SDS011;11965;53.640;10.050;2023-06-24T06:07:00;5.83;;;5.83;;
23573;SDS011;11965;53.640;10.050;2023-06-24T06:09:27;6.19;;;6.19;;
23573;SDS011;11965;53.640;10.050;2023-06-24T06:11:54;6.09;;;6.09;;
23573;SDS011;11965;53.640;10.050;2023-06-24T06:14:22;6.07;;;6.07;;
23573;SDS011;11965;53.640;10.050;2023-06-24T06:16:49;5.98;;;5.98;;
23573;SDS011;11965;53.640;10.050;2023-06-24T06:19:16;6.05;;;6.05;;
23573;SDS011;11965;53.640;10.050;2023-06-24T06:21:43;5.91;;;5.91;;
23573;SDS011;11965;53.640;10.050;2023-06-24T06:24:10;5.90;;;5.90;;
23573;SDS011;11965;53.640;10.050;2023-06-24T06:26:40;5.85;;;5.85;;
23573;SDS011;11965;53.640;10.050;2023-06-24T06:29:08;5.68;;;5.68;;
23573;SDS011;11965;53.640;10.050;2023-06-24T06:31:36;6.25;;;6.25;;
23573;SDS011;11965;53.640;10.050;2023-06-24T06:34:03;5.96;;;5.96;;
23573;SDS011;11965;53.640;10.050;2023-06-24T06:36:30;5.86;;;5.86;;
23573;SDS011;11965;53.640;10.050;2023-06-24T06:38:57;5.81;;;5.81;;
23573;SDS011;11965;53.640;10.050;2023-06-24T06:41:24;5.96;;;5.96;;
23573;SDS011;11965;53.640;10.050;2023-06-24T06:43:52;5.76;;;5.76;;
23573;SDS011;11965;53.640;10.050;2023-06-24T06:46:19;5.56;;;5.56;;
23573;SDS011;11965;53.640;10.050;2023-06-24T06:48:48;6.31;;;6.31;;
23573;SDS011;11965;53.640;10.050;2023-06-24T06:51:14;5.52;;;5.52;;
23573;SDS011;11965;53.640;10.050;2023-06-24T06:53:43;5.48;;;5.48;;
23573;SDS011;11965;53.640;10.050;2023-06-24T06:56:16;5.78;;;5.78;;
23573;SDS011;11965;53.640;10.050;2023-06-24T06:58:43;5.26;;;5.26;;
23573;SDS011;11965;53.640;10.050;2023-06-24T07:01:10;5.23;;;5.23;;
23573;SDS011;11965;53.640;10.050;2023-06-24T07:03:37;5.48;;;5.48;;
23573;SDS011;11965;53.640;10.050;2023-06-24T07:06:05;5.11;;;5.11;;
23573;SDS011;11965;53.640;10.050;2023-06-24T07:08:32;5.19;;;5.19;;
23573;SDS011;11965;53.640;10.050;2023-06-24T07:10:59;5.48;;;5.48;;
23573;SDS011;11965;53.640;10.050;2023-06-24T07:13:26;5.53;;;5.53;;
23573;SDS011;11965;53.640;10.050;2023-06-24T07:15:53;5.31;;;5.31;;
23573;SDS011;11965;53.640;10.050;2023-06-24T07:18:20;5.13;;;5.13;;
23573;SDS011;11965;53.640;10.050;2023-06-24T07:20:47;5.03;;;5.03;;
23573;SDS011;11965;53.640;10.050;2023-06-24T07:23:15;4.85;;;4.85;;
23573;SDS011;11965;53.640;10.050;2023-06-24T07:25:42;4.67;;;4.67;;
23573;SDS011;11965;53.640;10.050;2023-06-24T07:28:09;5.27;;;5.27;;
23573;SDS011;11965;53.640;10.050;2023-06-24T07:30:35;5.30;;;5.30;;
23573;SDS011;11965;53.640;10.050;2023-06-24T07:33:02;5.66;;;5.66;;
23573;SDS011;11965;53.640;10.050;2023-06-24T07:35:30;5.35;;;5.35;;
23573;SDS011;11965;53.640;10.050;2023-06-24T07:37:57;5.32;;;5.32;;
23573;SDS011;11965;53.640;10.050;2023-06-24T07:40:26;5.35;;;5.35;;
23573;SDS011;11965;53.640;10.050;2023-06-24T07:42:52;5.12;;;5.12;;
23573;SDS011;11965;53.640;10.050;2023-06-24T07:45:19;4.95;;;4.95;;
23573;SDS011;11965;53.640;10.050;2023-06-24T07:47:46;4.93;;;4.93;;
23573;SDS011;11965;53.640;10.050;2023-06-24T07:50:13;4.91;;;4.91;;
23573;SDS011;11965;53.640;10.050;2023-06-24T07:52:40;4.99;;;4.99;;
23573;SDS011;11965;53.640;10.050;2023-06-24T07:55:07;4.82;;;4.82;;
23573;SDS011;11965;53.640;10.050;2023-06-24T07:57:35;5.14;;;5.14;;
23573;SDS011;11965;53.640;10.050;2023-06-24T08:00:02;4.75;;;4.75;;
23573;SDS011;11965;53.640;10.050;2023-06-24T08:02:38;5.23;;;5.23;;
23573;SDS011;11965;53.640;10.050;2023-06-24T08:05:05;4.79;;;4.79;;
23573;SDS011;11965;53.640;10.050;2023-06-24T08:07:32;4.76;;;4.76;;
23573;SDS011;11965;53.640;10.050;2023-06-24T08:09:59;4.30;;;4.30;;
23573;SDS011;11965;53.640;10.050;2023-06-24T08:12:26;4.96;;;4.96;;
23573;SDS011;11965;53.640;10.050;2023-06-24T08:14:54;4.92;;;4.92;;
23573;SDS011;11965;53.640;10.050;2023-06-24T08:17:21;4.86;;;4.86;;
23573;SDS011;11965;53.640;10.050;2023-06-24T08:19:48;4.57;;;4.57;;
23573;SDS011;11965;53.640;10.050;2023-06-24T08:22:15;5.00;;;5.00;;
23573;SDS011;11965;53.640;10.050;2023-06-24T08:24:42;5.19;;;5.19;;
23573;SDS011;11965;53.640;10.050;2023-06-24T08:27:09;4.97;;;4.97;;
23573;SDS011;11965;53.640;10.050;2023-06-24T08:29:36;5.00;;;5.00;;
23573;SDS011;11965;53.640;10.050;2023-06-24T08:32:06;5.09;;;5.09;;
23573;SDS011;11965;53.640;10.050;2023-06-24T08:34:33;4.94;;;4.94;;
23573;SDS011;11965;53.640;10.050;2023-06-24T08:37:00;4.99;;;4.99;;
23573;SDS011;11965;53.640;10.050;2023-06-24T08:39:27;5.08;;;5.08;;
23573;SDS011;11965;53.640;10.050;2023-06-24T08:41:54;5.45;;;5.45;;
23573;SDS011;11965;53.640;10.050;2023-06-24T08:44:21;5.01;;;5.01;;
23573;SDS011;11965;53.640;10.050;2023-06-24T08:46:47;4.76;;;4.76;;
23573;SDS011;11965;53.640;10.050;2023-06-24T08:49:18;4.58;;;4.58;;
23573;SDS011;11965;53.640;10.050;2023-06-24T08:51:56;4.82;;;4.82;;
23573;SDS011;11965;53.640;10.050;2023-06-24T08:54:29;4.69;;;4.69;;
23573;SDS011;11965;53.640;10.050;2023-06-24T08:56:57;4.95;;;4.95;;
23573;SDS011;11965;53.640;10.050;2023-06-24T08:59:25;5.02;;;5.02;;
23573;SDS011;11965;53.640;10.050;2023-06-24T09:01:52;5.00;;;5.00;;
23573;SDS011;11965;53.640;10.050;2023-06-24T09:04:20;5.07;;;5.07;;
23573;SDS011;11965;53.640;10.050;2023-06-24T09:06:48;5.46;;;5.46;;
23573;SDS011;11965;53.640;10.050;2023-06-24T09:09:17;5.27;;;5.27;;
23573;SDS011;11965;53.640;10.050;2023-06-24T09:11:52;5.31;;;5.31;;
23573;SDS011;11965;53.640;10.050;2023-06-24T09:14:20;5.23;;;5.23;;
23573;SDS011;11965;53.640;10.050;2023-06-24T09:16:51;5.50;;;5.50;;
23573;SDS011;11965;53.640;10.050;2023-06-24T09:19:21;4.97;;;4.97;;
23573;SDS011;11965;53.640;10.050;2023-06-24T09:21:48;5.28;;;5.28;;
23573;SDS011;11965;53.640;10.050;2023-06-24T09:24:16;5.20;;;5.20;;
23573;SDS011;11965;53.640;10.050;2023-06-24T09:26:43;5.39;;;5.39;;
23573;SDS011;11965;53.640;10.050;2023-06-24T09:29:11;5.44;;;5.44;;
23573;SDS011;11965;53.640;10.050;2023-06-24T09:31:45;5.58;;;5.58;;
23573;SDS011;11965;53.640;10.050;2023-06-24T09:34:13;5.10;;;5.10;;
23573;SDS011;11965;53.640;10.050;2023-06-24T09:36:43;5.06;;;5.06;;
23573;SDS011;11965;53.640;10.050;2023-06-24T09:39:10;5.24;;;5.24;;
23573;SDS011;11965;53.640;10.050;2023-06-24T09:41:39;5.53;;;5.53;;
23573;SDS011;11965;53.640;10.050;2023-06-24T09:44:08;5.15;;;5.15;;
23573;SDS011;11965;53.640;10.050;2023-06-24T09:46:37;5.26;;;5.26;;
23573;SDS011;11965;53.640;10.050;2023-06-24T09:49:04;5.02;;;5.02;;
23573;SDS011;11965;53.640;10.050;2023-06-24T09:51:32;5.43;;;5.43;;
23573;SDS011;11965;53.640;10.050;2023-06-24T09:54:06;5.36;;;5.36;;
23573;SDS011;11965;53.640;10.050;2023-06-24T09:56:34;5.12;;;5.12;;
23573;SDS011;11965;53.640;10.050;2023-06-24T09:59:03;4.98;;;4.98;;
23573;SDS011;11965;53.640;10.050;2023-06-24T10:01:31;5.52;;;5.52;;
23573;SDS011;11965;53.640;10.050;2023-06-24T10:04:01;5.06;;;5.06;;
23573;SDS011;11965;53.640;10.050;2023-06-24T10:06:30;5.22;;;5.22;;
23573;SDS011;11965;53.640;10.050;2023-06-24T10:08:59;5.27;;;5.27;;
23573;SDS011;11965;53.640;10.050;2023-06-24T10:11:29;5.45;;;5.45;;
23573;SDS011;11965;53.640;10.050;2023-06-24T10:13:56;5.12;;;5.12;;
23573;SDS011;11965;53.640;10.050;2023-06-24T10:16:24;5.26;;;5.26;;
23573;SDS011;11965;53.640;10.050;2023-06-24T10:18:51;5.15;;;5.15;;
23573;SDS011;11965;53.640;10.050;2023-06-24T10:21:18;5.28;;;5.28;;
23573;SDS011;11965;53.640;10.050;2023-06-24T10:23:51;5.37;;;5.37;;
23573;SDS011;11965;53.640;10.050;2023-06-24T10:26:23;5.38;;;5.38;;
23573;SDS011;11965;53.640;10.050;2023-06-24T10:29:11;5.12;;;5.12;;
23573;SDS011;11965;53.640;10.050;2023-06-24T10:31:53;5.33;;;5.33;;
23573;SDS011;11965;53.640;10.050;2023-06-24T10:34:27;5.50;;;5.50;;
23573;SDS011;11965;53.640;10.050;2023-06-24T10:36:55;5.19;;;5.19;;
23573;SDS011;11965;53.640;10.050;2023-06-24T10:39:34;5.17;;;5.17;;
23573;SDS011;11965;53.640;10.050;2023-06-24T10:44:57;5.33;;;5.33;;
23573;SDS011;11965;53.640;10.050;2023-06-24T10:47:26;5.18;;;5.18;;
23573;SDS011;11965;53.640;10.050;2023-06-24T10:49:54;5.71;;;5.71;;
23573;SDS011;11965;53.640;10.050;2023-06-24T10:52:22;5.42;;;5.42;;
23573;SDS011;11965;53.640;10.050;2023-06-24T10:54:50;5.43;;;5.43;;
23573;SDS011;11965;53.640;10.050;2023-06-24T10:57:22;5.70;;;5.70;;
23573;SDS011;11965;53.640;10.050;2023-06-24T10:59:50;5.45;;;5.45;;
23573;SDS011;11965;53.640;10.050;2023-06-24T11:02:21;5.30;;;5.30;;
23573;SDS011;11965;53.640;10.050;2023-06-24T11:04:49;5.84;;;5.84;;
23573;SDS011;11965;53.640;10.050;2023-06-24T11:07:17;5.74;;;5.74;;
23573;SDS011;11965;53.640;10.050;2023-06-24T11:09:49;5.53;;;5.53;;
23573;SDS011;11965;53.640;10.050;2023-06-24T11:12:17;6.13;;;6.13;;
23573;SDS011;11965;53.640;10.050;2023-06-24T11:14:44;5.52;;;5.52;;
23573;SDS011;11965;53.640;10.050;2023-06-24T11:17:12;5.52;;;5.52;;
23573;SDS011;11965;53.640;10.050;2023-06-24T11:19:40;5.81;;;5.81;;
23573;SDS011;11965;53.640;10.050;2023-06-24T11:22:09;5.19;;;5.19;;
23573;SDS011;11965;53.640;10.050;2023-06-24T11:24:35;4.92;;;4.92;;
23573;SDS011;11965;53.640;10.050;2023-06-24T11:27:05;5.04;;;5.04;;
23573;SDS011;11965;53.640;10.050;2023-06-24T11:29:32;4.71;;;4.71;;
23573;SDS011;11965;53.640;10.050;2023-06-24T11:32:00;5.10;;;5.10;;
23573;SDS011;11965;53.640;10.050;2023-06-24T11:34:29;4.86;;;4.86;;
23573;SDS011;11965;53.640;10.050;2023-06-24T11:36:57;5.11;;;5.11;;
23573;SDS011;11965;53.640;10.050;2023-06-24T11:39:25;5.35;;;5.35;;
23573;SDS011;11965;53.640;10.050;2023-06-24T11:41:53;5.36;;;5.36;;
23573;SDS011;11965;53.640;10.050;2023-06-24T11:44:23;5.62;;;5.62;;
23573;SDS011;11965;53.640;10.050;2023-06-24T11:46:51;5.58;;;5.58;;
23573;SDS011;11965;53.640;10.050;2023-06-24T11:49:18;5.36;;;5.36;;
23573;SDS011;11965;53.640;10.050;2023-06-24T11:51:46;5.01;;;5.01;;
23573;SDS011;11965;53.640;10.050;2023-06-24T11:54:17;4.77;;;4.77;;
23573;SDS011;11965;53.640;10.050;2023-06-24T11:56:49;5.12;;;5.12;;
23573;SDS011;11965;53.640;10.050;2023-06-24T11:59:18;5.24;;;5.24;;
23573;SDS011;11965;53.640;10.050;2023-06-24T12:01:52;5.13;;;5.13;;
23573;SDS011;11965;53.640;10.050;2023-06-24T12:04:20;5.24;;;5.24;;
23573;SDS011;11965;53.640;10.050;2023-06-24T12:06:48;5.59;;;5.59;;
23573;SDS011;11965;53.640;10.050;2023-06-24T12:09:16;5.80;;;5.80;;
23573;SDS011;11965;53.640;10.050;2023-06-24T12:11:43;5.47;;;5.47;;
23573;SDS011;11965;53.640;10.050;2023-06-24T12:14:10;5.64;;;5.64;;
23573;SDS011;11965;53.640;10.050;2023-06-24T12:16:37;5.24;;;5.24;;
23573;SDS011;11965;53.640;10.050;2023-06-24T12:19:05;5.71;;;5.71;;
23573;SDS011;11965;53.640;10.050;2023-06-24T12:21:33;6.00;;;6.00;;
23573;SDS011;11965;53.640;10.050;2023-06-24T12:24:00;6.02;;;6.02;;
23573;SDS011;11965;53.640;10.050;2023-06-24T12:26:28;6.06;;;6.06;;
23573;SDS011;11965;53.640;10.050;2023-06-24T12:28:55;6.05;;;6.05;;
23573;SDS011;11965;53.640;10.050;2023-06-24T12:31:22;5.82;;;5.82;;
23573;SDS011;11965;53.640;10.050;2023-06-24T12:33:49;7.06;;;7.06;;
23573;SDS011;11965;53.640;10.050;2023-06-24T12:36:17;6.67;;;6.67;;
23573;SDS011;11965;53.640;10.050;2023-06-24T12:38:44;6.50;;;6.50;;
23573;SDS011;11965;53.640;10.050;2023-06-24T12:41:10;8.23;;;8.23;;
23573;SDS011;11965;53.640;10.050;2023-06-24T12:43:39;11.60;;;11.60;;
23573;SDS011;11965;53.640;10.050;2023-06-24T12:46:06;8.04;;;8.04;;
23573;SDS011;11965;53.640;10.050;2023-06-24T12:48:33;7.18;;;7.18;;
23573;SDS011;11965;53.640;10.050;2023-06-24T12:51:00;6.96;;;6.96;;
23573;SDS011;11965;53.640;10.050;2023-06-24T12:53:27;10.16;;;10.16;;
23573;SDS011;11965;53.640;10.050;2023-06-24T12:55:53;7.45;;;7.45;;
23573;SDS011;11965;53.640;10.050;2023-06-24T12:58:22;7.90;;;7.90;;
23573;SDS011;11965;53.640;10.050;2023-06-24T13:00:51;5.46;;;5.46;;
23573;SDS011;11965;53.640;10.050;2023-06-24T13:03:18;5.89;;;5.89;;
23573;SDS011;11965;53.640;10.050;2023-06-24T13:05:45;6.13;;;6.13;;
23573;SDS011;11965;53.640;10.050;2023-06-24T13:08:12;5.97;;;5.97;;
23573;SDS011;11965;53.640;10.050;2023-06-24T13:10:40;6.60;;;6.60;;
23573;SDS011;11965;53.640;10.050;2023-06-24T13:13:07;6.45;;;6.45;;
23573;SDS011;11965;53.640;10.050;2023-06-24T13:15:34;7.72;;;7.72;;
23573;SDS011;11965;53.640;10.050;2023-06-24T13:18:03;8.80;;;8.80;;
23573;SDS011;11965;53.640;10.050;2023-06-24T13:20:30;11.13;;;11.13;;
23573;SDS011;11965;53.640;10.050;2023-06-24T13:22:57;6.31;;;6.31;;
23573;SDS011;11965;53.640;10.050;2023-06-24T13:25:24;8.57;;;8.57;;
23573;SDS011;11965;53.640;10.050;2023-06-24T13:27:51;6.39;;;6.39;;
23573;SDS011;11965;53.640;10.050;2023-06-24T13:30:18;5.58;;;5.58;;
23573;SDS011;11965;53.640;10.050;2023-06-24T13:32:45;6.48;;;6.48;;
23573;SDS011;11965;53.640;10.050;2023-06-24T13:35:13;6.27;;;6.27;;
23573;SDS011;11965;53.640;10.050;2023-06-24T13:37:40;5.72;;;5.72;;
23573;SDS011;11965;53.640;10.050;2023-06-24T13:40:09;6.56;;;6.56;;
23573;SDS011;11965;53.640;10.050;2023-06-24T13:42:37;7.08;;;7.08;;
23573;SDS011;11965;53.640;10.050;2023-06-24T13:45:04;5.53;;;5.53;;
23573;SDS011;11965;53.640;10.050;2023-06-24T13:47:32;7.40;;;7.40;;
23573;SDS011;11965;53.640;10.050;2023-06-24T13:49:59;7.26;;;7.26;;
23573;SDS011;11965;53.640;10.050;2023-06-24T13:52:27;7.76;;;7.76;;
23573;SDS011;11965;53.640;10.050;2023-06-24T13:54:54;7.71;;;7.71;;
23573;SDS011;11965;53.640;10.050;2023-06-24T13:57:21;7.60;;;7.60;;
23573;SDS011;11965;53.640;10.050;2023-06-24T13:59:48;6.40;;;6.40;;
23573;SDS011;11965;53.640;10.050;2023-06-24T14:02:14;7.40;;;7.40;;
23573;SDS011;11965;53.640;10.050;2023-06-24T14:04:41;6.26;;;6.26;;
23573;SDS011;11965;53.640;10.050;2023-06-24T14:07:08;5.17;;;5.17;;
23573;SDS011;11965;53.640;10.050;2023-06-24T14:09:37;5.02;;;5.02;;
23573;SDS011;11965;53.640;10.050;2023-06-24T14:12:05;5.14;;;5.14;;
23573;SDS011;11965;53.640;10.050;2023-06-24T14:14:34;4.75;;;4.75;;
23573;SDS011;11965;53.640;10.050;2023-06-24T14:17:02;4.86;;;4.86;;
23573;SDS011;11965;53.640;10.050;2023-06-24T14:19:29;4.85;;;4.85;;
23573;SDS011;11965;53.640;10.050;2023-06-24T14:21:56;4.99;;;4.99;;
23573;SDS011;11965;53.640;10.050;2023-06-24T14:24:23;5.03;;;5.03;;
23573;SDS011;11965;53.640;10.050;2023-06-24T14:26:51;4.96;;;4.96;;
23573;SDS011;11965;53.640;10.050;2023-06-24T14:29:18;5.08;;;5.08;;
23573;SDS011;11965;53.640;10.050;2023-06-24T14:31:45;4.71;;;4.71;;
23573;SDS011;11965;53.640;10.050;2023-06-24T14:34:12;5.43;;;5.43;;
23573;SDS011;11965;53.640;10.050;2023-06-24T14:36:39;5.21;;;5.21;;
23573;SDS011;11965;53.640;10.050;2023-06-24T14:39:06;5.44;;;5.44;;